createdAt,value
2022-09-26T00:00:58.106Z,946.83
2022-09-26T00:01:58.144Z,946.86
2022-09-26T00:02:58.161Z,946.85
2022-09-26T00:03:58.064Z,946.87
2022-09-26T00:04:58.051Z,946.89
2022-09-26T00:05:58.069Z,946.84
2022-09-26T00:06:58.027Z,946.85
2022-09-26T00:07:58.019Z,946.84
2022-09-26T00:08:58.005Z,946.83
2022-09-26T00:09:57.994Z,946.79
2022-09-26T00:10:57.982Z,946.81
2022-09-26T00:11:57.971Z,946.78
2022-09-26T00:12:57.959Z,946.77
2022-09-26T00:13:57.949Z,946.73
2022-09-26T00:14:57.941Z,946.76
2022-09-26T00:15:57.930Z,946.71
2022-09-26T00:16:57.984Z,946.73
2022-09-26T00:17:57.904Z,946.72
2022-09-26T00:18:57.892Z,946.7
2022-09-26T00:19:57.878Z,946.71
2022-09-26T00:20:57.867Z,946.74
2022-09-26T00:21:57.881Z,946.7
2022-09-26T00:22:57.846Z,946.67
2022-09-26T00:23:57.841Z,946.7
2022-09-26T00:24:57.823Z,946.69
2022-09-26T00:25:57.809Z,946.7
2022-09-26T00:26:57.801Z,946.68
2022-09-26T00:27:57.787Z,946.64
2022-09-26T00:28:57.776Z,946.7
2022-09-26T00:29:57.764Z,946.61
2022-09-26T00:30:57.801Z,946.64
2022-09-26T00:31:57.740Z,946.63
2022-09-26T00:32:57.732Z,946.64
2022-09-26T00:33:57.726Z,946.59
2022-09-26T00:34:57.707Z,946.59
2022-09-26T00:35:57.695Z,946.58
2022-09-26T00:36:57.684Z,946.58
2022-09-26T00:37:57.697Z,946.56
2022-09-26T00:38:57.661Z,946.58
2022-09-26T00:39:57.650Z,946.58
2022-09-26T00:40:57.732Z,946.6
2022-09-26T00:41:57.627Z,946.58
2022-09-26T00:42:57.617Z,946.57
2022-09-26T00:43:57.619Z,946.62
2022-09-26T00:44:57.593Z,946.58
2022-09-26T00:45:57.641Z,946.59
2022-09-26T00:46:57.569Z,946.55
2022-09-26T00:47:57.556Z,946.52
2022-09-26T00:48:57.546Z,946.53
2022-09-26T00:49:57.535Z,946.55
2022-09-26T00:50:57.540Z,946.56
2022-09-26T00:51:57.511Z,946.52
2022-09-26T00:52:57.501Z,946.5
2022-09-26T00:53:57.512Z,946.48
2022-09-26T00:54:57.477Z,946.52
2022-09-26T00:55:57.464Z,946.52
2022-09-26T00:56:57.455Z,946.53
2022-09-26T00:57:57.443Z,946.52
2022-09-26T00:58:57.433Z,946.56
2022-09-26T00:59:57.417Z,946.53
2022-09-26T01:00:57.556Z,946.54
2022-09-26T01:01:57.573Z,946.53
2022-09-26T01:02:57.384Z,946.53
2022-09-26T01:03:57.372Z,946.55
2022-09-26T01:04:57.362Z,946.51
2022-09-26T01:05:57.348Z,946.52
2022-09-26T01:06:57.346Z,946.51
2022-09-26T01:07:57.326Z,946.5
2022-09-26T01:08:57.314Z,946.49
2022-09-26T01:09:57.328Z,946.48
2022-09-26T01:10:57.291Z,946.52
2022-09-26T01:11:57.281Z,946.48
2022-09-26T01:12:57.268Z,946.46
2022-09-26T01:13:57.257Z,946.45
2022-09-26T01:14:57.243Z,946.42
2022-09-26T01:15:57.233Z,946.46
2022-09-26T01:16:57.257Z,946.43
2022-09-26T01:17:57.210Z,946.44
2022-09-26T01:18:57.205Z,946.42
2022-09-26T01:19:57.188Z,946.44
2022-09-26T01:20:57.187Z,946.44
2022-09-26T01:21:57.166Z,946.45
2022-09-26T01:22:57.152Z,946.44
2022-09-26T01:23:57.236Z,946.44
2022-09-26T01:24:57.223Z,946.41
2022-09-26T01:25:57.236Z,946.43
2022-09-26T01:26:57.203Z,946.41
2022-09-26T01:27:57.189Z,946.42
2022-09-26T01:28:57.177Z,946.43
2022-09-26T01:29:57.165Z,946.43
2022-09-26T01:30:57.186Z,946.38
2022-09-26T01:31:57.141Z,946.35
2022-09-26T01:32:57.131Z,946.4
2022-09-26T01:33:57.120Z,946.36
2022-09-26T01:34:57.105Z,946.38
2022-09-26T01:35:57.095Z,946.37
2022-09-26T01:36:57.082Z,946.37
2022-09-26T01:37:57.076Z,946.35
2022-09-26T01:38:57.060Z,946.38
2022-09-26T01:39:57.052Z,946.36
2022-09-26T01:40:57.066Z,946.33
2022-09-26T01:41:57.048Z,946.33
2022-09-26T01:42:57.013Z,946.35
2022-09-26T01:43:57.001Z,946.35
2022-09-26T01:44:56.988Z,946.35
2022-09-26T01:45:56.980Z,946.33
2022-09-26T01:46:56.972Z,946.38
2022-09-26T01:47:56.953Z,946.38
2022-09-26T01:48:56.939Z,946.38
2022-09-26T01:49:56.931Z,946.34
2022-09-26T01:50:56.916Z,946.38
2022-09-26T01:51:56.907Z,946.37
2022-09-26T01:52:56.894Z,946.33
2022-09-26T01:53:56.884Z,946.34
2022-09-26T01:54:56.870Z,946.35
2022-09-26T01:55:56.858Z,946.33
2022-09-26T01:56:56.846Z,946.33
2022-09-26T01:57:56.860Z,946.34
2022-09-26T01:58:56.822Z,946.33
2022-09-26T01:59:56.812Z,946.34
2022-09-26T02:00:56.825Z,946.34
2022-09-26T02:01:56.876Z,946.35
2022-09-26T02:02:56.776Z,946.35
2022-09-26T02:03:56.763Z,946.31
2022-09-26T02:04:56.752Z,946.31
2022-09-26T02:05:56.739Z,946.33
2022-09-26T02:06:56.729Z,946.31
2022-09-26T02:07:56.716Z,946.3
2022-09-26T02:08:56.706Z,946.3
2022-09-26T02:09:56.692Z,946.29
2022-09-26T02:10:56.682Z,946.25
2022-09-26T02:11:56.667Z,946.27
2022-09-26T02:12:56.659Z,946.28
2022-09-26T02:13:56.668Z,946.22
2022-09-26T02:14:56.634Z,946.22
2022-09-26T02:15:56.621Z,946.23
2022-09-26T02:16:56.674Z,946.23
2022-09-26T02:17:56.600Z,946.21
2022-09-26T02:18:56.588Z,946.22
2022-09-26T02:19:56.573Z,946.21
2022-09-26T02:20:56.563Z,946.15
2022-09-26T02:21:56.548Z,946.15
2022-09-26T02:22:56.539Z,946.13
2022-09-26T02:23:56.531Z,946.17
2022-09-26T02:24:56.514Z,946.16
2022-09-26T02:25:56.502Z,946.14
2022-09-26T02:26:56.492Z,946.12
2022-09-26T02:27:56.478Z,946.1
2022-09-26T02:28:56.468Z,946.03
2022-09-26T02:29:56.481Z,946.05
2022-09-26T02:30:56.445Z,946.02
2022-09-26T02:31:56.502Z,945.99
2022-09-26T02:32:56.420Z,945.97
2022-09-26T02:33:56.408Z,945.98
2022-09-26T02:34:56.398Z,946.01
2022-09-26T02:35:56.383Z,945.99
2022-09-26T02:36:56.373Z,945.98
2022-09-26T02:37:56.363Z,945.97
2022-09-26T02:38:56.349Z,945.97
2022-09-26T02:39:56.336Z,945.93
2022-09-26T02:40:56.442Z,945.95
2022-09-26T02:41:56.313Z,945.98
2022-09-26T02:42:56.301Z,945.94
2022-09-26T02:43:56.288Z,945.97
2022-09-26T02:44:56.280Z,945.93
2022-09-26T02:45:56.349Z,945.95
2022-09-26T02:46:56.255Z,945.95
2022-09-26T02:47:56.245Z,945.94
2022-09-26T02:48:56.232Z,945.92
2022-09-26T02:49:56.217Z,945.95
2022-09-26T02:50:56.208Z,945.93
2022-09-26T02:51:56.195Z,945.95
2022-09-26T02:52:56.183Z,945.95
2022-09-26T02:53:56.174Z,945.93
2022-09-26T02:54:56.158Z,945.94
2022-09-26T02:55:56.149Z,945.94
2022-09-26T02:56:56.135Z,945.91
2022-09-26T02:57:56.125Z,945.88
2022-09-26T02:58:56.161Z,945.89
2022-09-26T02:59:56.101Z,945.86
2022-09-26T03:00:56.106Z,945.85
2022-09-26T03:01:56.104Z,945.85
2022-09-26T03:02:56.067Z,945.86
2022-09-26T03:03:56.055Z,945.81
2022-09-26T03:04:56.086Z,945.87
2022-09-26T03:05:56.032Z,945.85
2022-09-26T03:06:56.017Z,945.84
2022-09-26T03:07:56.007Z,945.85
2022-09-26T03:08:55.995Z,945.85
2022-09-26T03:09:55.983Z,945.83
2022-09-26T03:10:55.970Z,945.83
2022-09-26T03:11:55.960Z,945.84
2022-09-26T03:12:55.946Z,945.83
2022-09-26T03:13:55.936Z,945.82
2022-09-26T03:14:58.657Z,945.83
2022-09-26T03:15:55.911Z,945.84
2022-09-26T03:16:55.920Z,945.87
2022-09-26T03:17:55.912Z,945.86
2022-09-26T03:18:55.873Z,945.86
2022-09-26T03:19:55.866Z,945.89
2022-09-26T03:20:55.849Z,945.94
2022-09-26T03:21:55.840Z,945.92
2022-09-26T03:22:55.825Z,945.94
2022-09-26T03:23:55.814Z,945.89
2022-09-26T03:24:55.801Z,945.89
2022-09-26T03:25:55.792Z,945.87
2022-09-26T03:26:55.781Z,945.91
2022-09-26T03:27:55.769Z,945.88
2022-09-26T03:28:55.755Z,945.84
2022-09-26T03:29:55.742Z,945.86
2022-09-26T03:30:55.729Z,945.87
2022-09-26T03:31:55.812Z,945.82
2022-09-26T03:32:55.705Z,945.84
2022-09-26T03:49:48.897Z,945.82
2022-09-26T03:50:48.857Z,945.81
2022-09-26T03:51:48.833Z,945.8
2022-09-26T03:52:48.829Z,945.78
2022-09-26T03:53:48.802Z,945.79
2022-09-26T03:54:48.788Z,945.78
2022-09-26T03:55:48.773Z,945.77
2022-09-26T03:56:48.759Z,945.77
2022-09-26T03:57:48.744Z,945.74
2022-09-26T03:58:48.730Z,945.74
2022-09-26T03:59:48.716Z,945.71
2022-09-26T04:00:48.754Z,945.72
2022-09-26T04:01:48.756Z,945.73
2022-09-26T04:02:48.675Z,945.73
2022-09-26T04:03:50.723Z,945.75
2022-09-26T04:04:48.647Z,945.71
2022-09-26T04:05:48.657Z,945.71
2022-09-26T04:06:48.621Z,945.71
2022-09-26T04:07:48.604Z,945.76
2022-09-26T04:08:48.596Z,945.71
2022-09-26T04:09:48.579Z,945.71
2022-09-26T04:10:48.567Z,945.72
2022-09-26T04:11:48.556Z,945.7
2022-09-26T04:12:48.543Z,945.7
2022-09-26T04:13:53.139Z,945.71
2022-09-26T04:14:48.514Z,945.67
2022-09-26T04:15:48.501Z,945.69
2022-09-26T04:16:48.543Z,945.61
2022-09-26T04:17:48.482Z,945.65
2022-09-26T04:18:48.464Z,945.63
2022-09-26T04:19:48.450Z,945.6
2022-09-26T04:20:48.439Z,945.63
2022-09-26T04:21:48.449Z,945.59
2022-09-26T04:22:48.412Z,945.57
2022-09-26T04:23:48.399Z,945.59
2022-09-26T04:24:48.388Z,945.53
2022-09-26T04:25:48.375Z,945.54
2022-09-26T04:26:48.368Z,945.58
2022-09-26T04:27:48.350Z,945.53
2022-09-26T04:28:48.339Z,945.51
2022-09-26T04:29:48.323Z,945.48
2022-09-26T04:30:48.313Z,945.45
2022-09-26T04:31:48.364Z,945.46
2022-09-26T04:32:48.287Z,945.47
2022-09-26T04:33:48.274Z,945.44
2022-09-26T04:34:48.262Z,945.45
2022-09-26T04:35:48.249Z,945.42
2022-09-26T04:36:48.237Z,945.38
2022-09-26T04:37:48.261Z,945.41
2022-09-26T04:38:48.212Z,945.4
2022-09-26T04:39:48.200Z,945.37
2022-09-26T04:40:48.217Z,945.37
2022-09-26T04:41:48.175Z,945.36
2022-09-26T04:42:48.162Z,945.3
2022-09-26T04:43:48.150Z,945.3
2022-09-26T04:44:48.140Z,945.35
2022-09-26T04:45:48.146Z,945.38
2022-09-26T04:46:48.117Z,945.32
2022-09-26T04:47:48.101Z,945.31
2022-09-26T04:48:48.089Z,945.35
2022-09-26T04:49:48.077Z,945.34
2022-09-26T04:50:48.080Z,945.36
2022-09-26T04:51:48.052Z,945.4
2022-09-26T04:52:48.039Z,945.39
2022-09-26T04:53:48.136Z,945.42
2022-09-26T04:54:48.013Z,945.38
2022-09-26T04:55:48.007Z,945.45
2022-09-26T04:56:47.990Z,945.43
2022-09-26T04:57:47.981Z,945.44
2022-09-26T04:58:47.973Z,945.42
2022-09-26T04:59:47.953Z,945.48
2022-09-26T05:00:48.027Z,945.51
2022-09-26T05:01:48.029Z,945.51
2022-09-26T05:02:47.931Z,945.54
2022-09-26T05:03:47.903Z,945.5
2022-09-26T05:04:47.892Z,945.53
2022-09-26T05:05:47.881Z,945.53
2022-09-26T05:06:47.867Z,945.48
2022-09-26T05:07:47.857Z,945.51
2022-09-26T05:08:47.841Z,945.51
2022-09-26T05:09:47.856Z,945.51
2022-09-26T05:10:47.820Z,945.51
2022-09-26T05:11:47.807Z,945.5
2022-09-26T05:12:47.794Z,945.49
2022-09-26T05:13:52.493Z,945.44
2022-09-26T05:14:47.769Z,945.43
2022-09-26T05:15:47.758Z,945.48
2022-09-26T05:16:47.767Z,945.44
2022-09-26T05:17:47.733Z,945.45
2022-09-26T05:18:47.720Z,945.45
2022-09-26T05:19:47.710Z,945.45
2022-09-26T05:20:47.695Z,945.47
2022-09-26T05:21:47.686Z,945.42
2022-09-26T05:22:47.671Z,945.44
2022-09-26T05:23:47.660Z,945.41
2022-09-26T05:24:47.648Z,945.4
2022-09-26T05:25:47.660Z,945.4
2022-09-26T05:26:47.626Z,945.41
2022-09-26T05:27:47.612Z,945.41
2022-09-26T05:28:47.597Z,945.38
2022-09-26T05:29:47.588Z,945.37
2022-09-26T05:30:47.574Z,945.39
2022-09-26T05:31:47.643Z,945.37
2022-09-26T05:32:47.552Z,945.36
2022-09-26T05:33:47.537Z,945.36
2022-09-26T05:34:47.527Z,945.35
2022-09-26T05:35:47.512Z,945.38
2022-09-26T05:36:47.504Z,945.38
2022-09-26T05:37:47.490Z,945.37
2022-09-26T05:38:47.478Z,945.34
2022-09-26T05:39:47.465Z,945.4
2022-09-26T05:40:47.550Z,945.4
2022-09-26T05:41:47.466Z,945.4
2022-09-26T05:42:47.428Z,945.41
2022-09-26T05:43:47.417Z,945.37
2022-09-26T05:44:47.405Z,945.42
2022-09-26T05:45:47.392Z,945.38
2022-09-26T05:46:47.427Z,945.4
2022-09-26T05:47:47.367Z,945.42
2022-09-26T05:48:47.357Z,945.41
2022-09-26T05:49:47.343Z,945.43
2022-09-26T05:50:47.334Z,945.39
2022-09-26T05:51:47.318Z,945.44
2022-09-26T05:52:47.308Z,945.4
2022-09-26T05:53:47.306Z,945.36
2022-09-26T05:54:47.284Z,945.34
2022-09-26T05:55:47.272Z,945.41
2022-09-26T05:56:47.258Z,945.41
2022-09-26T05:57:47.278Z,945.36
2022-09-26T05:58:47.292Z,945.35
2022-09-26T05:59:47.227Z,945.36
2022-09-26T06:00:47.296Z,945.38
2022-09-26T06:01:47.263Z,945.41
2022-09-26T06:02:47.186Z,945.38
2022-09-26T06:03:47.194Z,945.38
2022-09-26T06:04:48.137Z,945.35
2022-09-26T06:05:48.121Z,945.36
2022-09-26T06:06:48.114Z,945.38
2022-09-26T06:07:48.100Z,945.36
2022-09-26T06:08:48.087Z,945.37
2022-09-26T06:09:48.074Z,945.36
2022-09-26T06:10:48.065Z,945.39
2022-09-26T06:11:48.054Z,945.38
2022-09-26T06:12:50.948Z,945.39
2022-09-26T06:13:48.052Z,945.38
2022-09-26T06:14:48.018Z,945.39
2022-09-26T06:15:48.003Z,945.35
2022-09-26T06:16:48.058Z,945.39
2022-09-26T06:17:47.980Z,945.39
2022-09-26T06:18:47.969Z,945.39
2022-09-26T06:19:47.956Z,945.36
2022-09-26T06:20:47.946Z,945.34
2022-09-26T06:21:47.932Z,945.35
2022-09-26T06:22:47.920Z,945.34
2022-09-26T06:23:47.909Z,945.32
2022-09-26T06:24:47.896Z,945.32
2022-09-26T06:25:47.885Z,945.3
2022-09-26T06:26:47.872Z,945.34
2022-09-26T06:27:47.863Z,945.31
2022-09-26T06:28:47.849Z,945.33
2022-09-26T06:29:47.972Z,945.29
2022-09-26T06:30:47.826Z,945.33
2022-09-26T06:31:47.882Z,945.31
2022-09-26T06:32:47.801Z,945.3
2022-09-26T06:33:47.790Z,945.31
2022-09-26T06:34:47.777Z,945.28
2022-09-26T06:35:47.766Z,945.26
2022-09-26T06:36:47.756Z,945.29
2022-09-26T06:37:47.741Z,945.26
2022-09-26T06:38:47.730Z,945.23
2022-09-26T06:39:47.717Z,945.23
2022-09-26T06:40:47.741Z,945.27
2022-09-26T06:41:47.694Z,945.3
2022-09-26T06:42:47.683Z,945.31
2022-09-26T06:43:47.790Z,945.26
2022-09-26T06:44:47.656Z,945.28
2022-09-26T06:45:47.673Z,945.25
2022-09-26T06:46:47.692Z,945.21
2022-09-26T06:47:47.622Z,945.23
2022-09-26T06:48:47.607Z,945.19
2022-09-26T06:49:47.597Z,945.14
2022-09-26T06:50:47.585Z,945.16
2022-09-26T06:51:47.573Z,945.09
2022-09-26T06:52:47.559Z,945.12
2022-09-26T06:53:47.557Z,945.14
2022-09-26T06:54:47.535Z,945.13
2022-09-26T06:55:47.524Z,945.13
2022-09-26T06:56:47.510Z,945.13
2022-09-26T06:57:47.499Z,945.11
2022-09-26T06:58:47.486Z,945.09
2022-09-26T06:59:47.474Z,945.06
2022-09-26T07:00:47.597Z,945.07
2022-09-26T07:01:47.674Z,945.03
2022-09-26T07:02:47.436Z,945.07
2022-09-26T07:03:47.425Z,945.05
2022-09-26T07:04:49.536Z,945.02
2022-09-26T07:05:47.402Z,945.04
2022-09-26T07:06:47.386Z,945
2022-09-26T07:07:47.377Z,945.02
2022-09-26T07:09:04.786Z,944.98
2022-09-26T07:09:47.352Z,945.02
2022-09-26T07:10:47.338Z,944.98
2022-09-26T07:12:12.743Z,944.99
2022-09-26T07:12:47.316Z,945.07
2022-09-26T07:13:47.307Z,945.07
2022-09-26T07:14:52.787Z,945.09
2022-09-26T07:15:47.330Z,945.05
2022-09-26T07:16:47.267Z,945.06
2022-09-26T07:17:47.439Z,945.11
2022-09-26T07:18:47.242Z,945.11
2022-09-26T07:19:47.227Z,945.11
2022-09-26T07:20:47.217Z,945.1
2022-09-26T07:21:47.202Z,945.16
2022-09-26T07:22:47.192Z,945.09
2022-09-26T07:23:47.179Z,945.1
2022-09-26T07:24:47.169Z,945.11
2022-09-26T07:25:47.154Z,945.14
2022-09-26T07:26:47.143Z,945.16
2022-09-26T07:27:47.129Z,945.17
2022-09-26T07:28:50.872Z,945.1
2022-09-26T07:29:47.105Z,945.13
2022-09-26T07:30:47.095Z,945.11
2022-09-26T07:31:47.154Z,945.11
2022-09-26T07:32:47.072Z,945.14
2022-09-26T07:33:47.078Z,945.12
2022-09-26T07:34:47.046Z,945.15
2022-09-26T07:35:47.031Z,945.15
2022-09-26T07:36:47.020Z,945.16
2022-09-26T07:37:47.005Z,945.15
2022-09-26T07:38:46.996Z,945.11
2022-09-26T07:39:50.074Z,945.08
2022-09-26T07:40:47.009Z,945.03
2022-09-26T07:41:46.959Z,945.07
2022-09-26T07:42:58.560Z,945.07
2022-09-26T07:45:20.796Z,945.05
2022-09-26T07:45:47.425Z,945.08
2022-09-26T07:46:47.482Z,945.08
2022-09-26T07:47:47.401Z,945.04
2022-09-26T07:48:47.388Z,945.03
2022-09-26T07:49:47.490Z,945.04
2022-09-26T07:50:47.366Z,945.04
2022-09-26T07:51:47.352Z,945.01
2022-09-26T07:52:47.340Z,945.03
2022-09-26T07:53:47.329Z,945.04
2022-09-26T07:54:47.315Z,945.03
2022-09-26T07:55:47.305Z,945.02
2022-09-26T07:56:47.289Z,945.03
2022-09-26T07:57:47.286Z,945.05
2022-09-26T07:58:47.266Z,945.09
2022-09-26T07:59:47.256Z,945.07
2022-09-26T08:00:47.243Z,945.09
2022-09-26T08:01:47.255Z,945.09
2022-09-26T08:02:47.341Z,945.09
2022-09-26T08:03:47.207Z,945.12
2022-09-26T08:04:47.193Z,945.1
2022-09-26T08:05:47.210Z,945.13
2022-09-26T08:06:47.172Z,945.11
2022-09-26T08:07:47.158Z,945.12
2022-09-26T08:08:47.147Z,945.09
2022-09-26T08:09:47.134Z,945.07
2022-09-26T08:10:47.145Z,945.11
2022-09-26T08:11:47.112Z,945.04
2022-09-26T08:12:47.099Z,945.12
2022-09-26T08:13:47.085Z,945.08
2022-09-26T08:14:47.076Z,945.07
2022-09-26T08:15:47.099Z,945.05
2022-09-26T08:16:47.052Z,945.1
2022-09-26T08:17:47.040Z,945.05
2022-09-26T08:18:47.029Z,945.06
2022-09-26T08:19:47.016Z,945.07
2022-09-26T08:20:47.008Z,945.09
2022-09-26T08:21:47.035Z,945.09
2022-09-26T08:22:46.984Z,945.05
2022-09-26T08:23:46.984Z,945.08
2022-09-26T08:24:46.959Z,945.12
2022-09-26T08:25:46.946Z,945.07
2022-09-26T08:26:46.938Z,945.06
2022-09-26T08:27:46.923Z,945.06
2022-09-26T08:28:46.914Z,945.07
2022-09-26T08:29:46.900Z,945.06
2022-09-26T08:30:46.890Z,945.1
2022-09-26T08:31:46.929Z,945.08
2022-09-26T08:32:46.866Z,945.11
2022-09-26T08:33:46.859Z,945.09
2022-09-26T08:34:46.844Z,945.02
2022-09-26T08:35:46.838Z,945.08
2022-09-26T08:36:46.823Z,945.09
2022-09-26T08:37:47.475Z,945.06
2022-09-26T08:38:47.441Z,945.03
2022-09-26T08:39:47.430Z,945.05
2022-09-26T08:40:47.464Z,945.03
2022-09-26T08:41:47.410Z,944.99
2022-09-26T08:42:47.399Z,944.98
2022-09-26T08:43:47.383Z,944.98
2022-09-26T08:44:47.373Z,944.91
2022-09-26T08:45:47.995Z,944.92
2022-09-26T08:46:47.426Z,944.92
2022-09-26T08:47:47.337Z,944.93
2022-09-26T08:48:47.331Z,944.96
2022-09-26T08:49:47.315Z,944.93
2022-09-26T08:50:47.306Z,944.9
2022-09-26T08:51:47.299Z,944.89
2022-09-26T08:52:47.290Z,944.92
2022-09-26T08:53:47.299Z,944.88
2022-09-26T08:54:47.263Z,944.9
2022-09-26T08:55:47.254Z,944.9
2022-09-26T08:56:47.239Z,944.88
2022-09-26T08:57:47.232Z,944.9
2022-09-26T08:58:47.216Z,944.9
2022-09-26T08:59:47.211Z,944.85
2022-09-26T09:00:47.194Z,944.87
2022-09-26T09:01:47.401Z,944.81
2022-09-26T09:02:47.301Z,944.83
2022-09-26T09:03:47.165Z,944.83
2022-09-26T09:04:50.294Z,944.86
2022-09-26T09:05:47.144Z,944.82
2022-09-26T09:06:47.130Z,944.89
2022-09-26T09:07:47.121Z,944.88
2022-09-26T09:08:47.108Z,944.85
2022-09-26T09:09:47.125Z,944.88
2022-09-26T09:10:47.087Z,944.91
2022-09-26T09:11:50.763Z,944.9
2022-09-26T09:12:47.067Z,944.88
2022-09-26T09:13:47.059Z,944.86
2022-09-26T09:14:54.317Z,944.86
2022-09-26T09:15:47.093Z,944.87
2022-09-26T09:16:47.026Z,944.91
2022-09-26T09:17:47.016Z,944.88
2022-09-26T09:18:47.020Z,944.85
2022-09-26T09:19:46.995Z,944.91
2022-09-26T09:20:46.989Z,944.85
2022-09-26T09:21:46.986Z,944.89
2022-09-26T09:22:46.982Z,944.81
2022-09-26T09:23:46.965Z,944.84
2022-09-26T09:24:46.953Z,944.89
2022-09-26T09:25:46.993Z,944.86
2022-09-26T09:28:09.025Z,944.84
2022-09-26T09:29:10.296Z,944.86
2022-09-26T09:30:17.089Z,944.82
2022-09-26T09:31:08.823Z,944.8
2022-09-26T09:32:08.768Z,944.81
2022-09-26T09:33:08.746Z,944.8
2022-09-26T09:34:08.796Z,944.81
2022-09-26T09:35:08.728Z,944.81
2022-09-26T09:36:08.730Z,944.8
2022-09-26T09:37:08.711Z,944.72
2022-09-26T09:38:08.699Z,944.7
2022-09-26T09:39:08.688Z,944.72
2022-09-26T09:40:08.681Z,944.66
2022-09-26T09:41:08.719Z,944.68
2022-09-26T09:42:08.659Z,944.63
2022-09-26T09:43:08.647Z,944.63
2022-09-26T09:44:08.736Z,944.61
2022-09-26T09:45:08.640Z,944.61
2022-09-26T09:46:08.649Z,944.54
2022-09-26T09:47:08.608Z,944.6
2022-09-26T09:48:08.597Z,944.6
2022-09-26T09:49:08.589Z,944.62
2022-09-26T09:50:08.579Z,944.59
2022-09-26T09:51:08.573Z,944.58
2022-09-26T09:52:08.559Z,944.5
2022-09-26T09:53:08.554Z,944.53
2022-09-26T09:54:08.545Z,944.48
2022-09-26T09:55:08.532Z,944.47
2022-09-26T09:56:08.520Z,944.44
2022-09-26T09:57:08.541Z,944.41
2022-09-26T09:58:08.503Z,944.4
2022-09-26T09:59:08.501Z,944.42
2022-09-26T10:00:08.483Z,944.44
2022-09-26T10:01:08.475Z,944.41
2022-09-26T10:02:08.465Z,944.38
2022-09-26T10:03:08.530Z,944.39
2022-09-26T10:04:08.484Z,944.41
2022-09-26T10:05:08.438Z,944.37
2022-09-26T10:06:11.703Z,944.38
2022-09-26T10:07:08.419Z,944.36
2022-09-26T10:08:08.408Z,944.41
2022-09-26T10:09:35.113Z,944.41
2022-09-26T10:10:08.390Z,944.45
2022-09-26T10:11:08.382Z,944.38
2022-09-26T10:12:08.371Z,944.46
2022-09-26T10:13:08.391Z,944.37
2022-09-26T10:14:08.353Z,944.41
2022-09-26T10:15:08.345Z,944.42
2022-09-26T10:16:08.412Z,944.36
2022-09-26T10:17:08.326Z,944.39
2022-09-26T10:18:25.558Z,944.47
2022-09-26T10:19:08.310Z,944.41
2022-09-26T10:20:08.300Z,944.46
2022-09-26T10:21:08.294Z,944.36
2022-09-26T10:22:08.283Z,944.38
2022-09-26T10:23:08.274Z,944.37
2022-09-26T10:24:08.264Z,944.37
2022-09-26T10:25:08.256Z,944.29
2022-09-26T10:26:08.248Z,944.38
2022-09-26T10:27:08.241Z,944.33
2022-09-26T10:28:08.239Z,944.3
2022-09-26T10:29:08.256Z,944.31
2022-09-26T10:30:08.213Z,944.27
2022-09-26T10:31:08.306Z,944.28
2022-09-26T10:32:08.196Z,944.29
2022-09-26T10:33:08.188Z,944.26
2022-09-26T10:34:08.179Z,944.22
2022-09-26T10:35:08.172Z,944.24
2022-09-26T10:36:08.163Z,944.26
2022-09-26T10:37:08.160Z,944.27
2022-09-26T10:38:08.145Z,944.26
2022-09-26T10:39:08.138Z,944.24
2022-09-26T10:40:08.129Z,944.27
2022-09-26T10:41:08.210Z,944.23
2022-09-26T10:42:08.118Z,944.23
2022-09-26T10:43:08.120Z,944.27
2022-09-26T10:44:08.098Z,944.24
2022-09-26T10:45:08.115Z,944.15
2022-09-26T10:46:08.122Z,944.13
2022-09-26T10:47:08.072Z,944.12
2022-09-26T10:48:08.064Z,944.15
2022-09-26T10:49:08.056Z,944.2
2022-09-26T10:50:08.047Z,944.18
2022-09-26T10:51:08.039Z,944.09
2022-09-26T10:52:08.034Z,944.03
2022-09-26T10:53:08.022Z,944.04
2022-09-26T10:54:08.014Z,944.08
2022-09-26T10:55:08.008Z,944.07
2022-09-26T10:56:08.067Z,944.11
2022-09-26T10:57:08.057Z,944.05
2022-09-26T10:58:12.954Z,944.06
2022-09-26T10:59:08.043Z,944.04
2022-09-26T11:00:08.037Z,944.05
2022-09-26T11:01:08.054Z,944.06
2022-09-26T11:02:08.105Z,944.12
2022-09-26T11:03:08.054Z,944.06
2022-09-26T11:04:08.181Z,944.08
2022-09-26T11:05:07.994Z,944.09
2022-09-26T11:06:07.985Z,944
2022-09-26T11:07:07.981Z,943.97
2022-09-26T11:08:07.969Z,943.97
2022-09-26T11:09:07.964Z,943.95
2022-09-26T11:10:07.954Z,943.96
2022-09-26T11:11:07.943Z,943.87
2022-09-26T11:12:07.938Z,943.91
2022-09-26T11:13:07.926Z,943.91
2022-09-26T11:14:07.920Z,943.91
2022-09-26T11:15:07.910Z,943.92
2022-09-26T11:16:07.989Z,943.82
2022-09-26T11:17:07.919Z,943.87
2022-09-26T11:18:07.886Z,943.85
2022-09-26T11:19:07.883Z,943.86
2022-09-26T11:20:07.870Z,943.85
2022-09-26T11:21:18.368Z,943.89
2022-09-26T11:22:08.465Z,943.81
2022-09-26T11:23:07.845Z,943.79
2022-09-26T11:24:07.837Z,943.82
2022-09-26T11:25:07.826Z,943.78
2022-09-26T11:26:07.819Z,943.75
2022-09-26T11:27:07.811Z,943.8
2022-09-26T11:28:07.804Z,943.74
2022-09-26T11:29:07.793Z,943.73
2022-09-26T11:30:07.787Z,943.75
2022-09-26T11:31:07.815Z,943.72
2022-09-26T11:32:07.770Z,943.73
2022-09-26T11:33:07.847Z,943.74
2022-09-26T11:34:07.754Z,943.7
2022-09-26T11:35:07.748Z,943.75
2022-09-26T11:36:07.739Z,943.67
2022-09-26T11:37:07.733Z,943.69
2022-09-26T11:38:07.726Z,943.7
2022-09-26T11:39:07.717Z,943.7
2022-09-26T11:40:09.901Z,943.69
2022-09-26T11:41:07.728Z,943.63
2022-09-26T11:42:07.720Z,943.6
2022-09-26T11:43:07.718Z,943.62
2022-09-26T11:44:07.706Z,943.66
2022-09-26T11:45:07.700Z,943.64
2022-09-26T11:46:07.714Z,943.55
2022-09-26T11:47:07.686Z,943.59
2022-09-26T11:48:07.675Z,943.62
2022-09-26T11:49:07.699Z,943.59
2022-09-26T11:50:07.661Z,943.62
2022-09-26T11:51:07.656Z,943.58
2022-09-26T11:52:07.650Z,943.55
2022-09-26T11:53:07.640Z,943.57
2022-09-26T11:54:07.632Z,943.53
2022-09-26T11:55:07.624Z,943.51
2022-09-26T11:56:07.767Z,943.52
2022-09-26T11:57:07.610Z,943.47
2022-09-26T11:58:07.602Z,943.47
2022-09-26T11:59:07.596Z,943.5
2022-09-26T12:00:07.587Z,943.46
2022-09-26T12:01:07.583Z,943.42
2022-09-26T12:02:07.571Z,943.39
2022-09-26T12:03:07.657Z,943.36
2022-09-26T12:04:07.680Z,943.35
2022-09-26T12:05:07.580Z,943.35
2022-09-26T12:06:07.540Z,943.33
2022-09-26T12:07:07.533Z,943.32
2022-09-26T12:08:07.524Z,943.31
2022-09-26T12:09:07.519Z,943.28
2022-09-26T12:10:07.508Z,943.28
2022-09-26T12:11:07.504Z,943.25
2022-09-26T12:12:07.494Z,943.25
2022-09-26T12:13:07.488Z,943.22
2022-09-26T12:14:07.483Z,943.22
2022-09-26T12:15:07.471Z,943.16
2022-09-26T12:16:07.493Z,943.11
2022-09-26T12:17:07.457Z,943.12
2022-09-26T12:18:07.447Z,943.13
2022-09-26T12:19:09.527Z,943.11
2022-09-26T12:20:07.432Z,943.06
2022-09-26T12:21:07.451Z,943.08
2022-09-26T12:22:07.416Z,943.02
2022-09-26T12:23:07.420Z,942.98
2022-09-26T12:24:07.496Z,942.99
2022-09-26T12:25:07.392Z,942.98
2022-09-26T12:26:07.388Z,943.05
2022-09-26T12:27:07.378Z,943.04
2022-09-26T12:28:07.372Z,942.97
2022-09-26T12:29:07.363Z,943
2022-09-26T12:30:07.357Z,943.06
2022-09-26T12:31:07.378Z,943.01
2022-09-26T12:32:07.341Z,942.97
2022-09-26T12:33:07.339Z,943.01
2022-09-26T12:34:07.333Z,942.99
2022-09-26T12:35:07.317Z,942.97
2022-09-26T12:36:07.312Z,942.94
2022-09-26T12:37:07.327Z,942.95
2022-09-26T12:38:07.313Z,942.92
2022-09-26T12:39:07.288Z,942.9
2022-09-26T12:40:07.282Z,942.89
2022-09-26T12:41:07.424Z,942.89
2022-09-26T12:42:07.269Z,942.89
2022-09-26T12:43:07.259Z,942.84
2022-09-26T12:44:07.254Z,942.86
2022-09-26T12:45:07.243Z,942.79
2022-09-26T12:46:07.335Z,942.79
2022-09-26T12:47:07.239Z,942.81
2022-09-26T12:48:07.223Z,942.78
2022-09-26T12:49:07.264Z,942.81